Avondale, Kentucky
Current Conditions -  °F | °C
As of 10:53 PM on Sunday 19 Oct 2014 (Local Time) from KPAH Reporting Station
Clear Clear  
Wind Chill: 50°   Ceiling: Unl
Heat Index: 50°   Visibility: 10mi
Dew Point: 45°   Wind: 6mph
Humidity: 83%   Direction: 180°S
Pressure: 30.07"   Gusts: NA
Location:  37.0331°N, 88.716°W
Report Text: KPAH 200353Z AUTO 18005KT 10SM CLR 10/07 A3007 RMK AO2 SLP183 T01000072
Loading
Personal Weather Stations






























Interactive Weather Map
Tropical Storm Tracking
New forecast layout! Learn more

10-Day Weather Forecast

Advertisements
Track Severe Weather on mobile